Create Custom Reports and Graphics: Custom Report

North/Central Map

Map

15 Minute Data

Latest Observations

Map

15 Minute Data

Northern Sonoma County Latest

13 Stations

15 Minute Data | America/Los_Angeles
as of 1/19/21 5:25 PM PST
Station Date Time Temp (°F) RH (%) Dew Pt (°F) Wind Spd (mph) Wind Dir (°) Wind Gust (mph) Latest Rain (In) Daily Rain (In) Daily Min Temp (°F) Daily Max Temp (°F)
Rockpile Upper (Cooley) 1/19/21 1715 55.4   10.7 14   1 7.7   10.8 6.6 NNE | 16 18.2   6.6 0.00 0.00 45.9   12.3 58.8   16.1
Rockpile Lower (Cooley) 1/19/21 1700 59.5   12.3 13   5 9.1   17.6 7.5 NE | 56 15.6   12.5 0.00 0.00 49.2   11.0 63.7   15.3
Cloverdale-East (Ranch 83) 1/19/21 1715 62.3   10.2 15   6 14.5   3.1 3.4 N | 11 7.1   4.3 0.00 0.00 52.0   9.0 67.9   13.5
Cloverdale-SE (Ranch 38) 1/19/21 1715 62.0   10.0 16   5 15.6   1.2 2.6 N | 9 7.8   0.8 0.00 0.00 50.2   4.0 68.5   13.6
Geyserville-North (Hoffman) 1/15/21 1800 60.1   3.0 68   11 49.6   1.8 1.2 WSW | 238 2.5   3.0 0.00 0.00 37.8   0.8 75.4   3.7
Geyserville (Ranch 3) 1/19/21 1715 62.6   9.1 15   5 14.5   2.0 5.5 NNE | 19 11.7   2.7 0.00 0.00 52.7   1.7 66.0   13.5
Geyserville-East (Ranch 40) 1/19/21 1715 60.8   10.8 17   8 16.0   5.4 10.6 NNE | 29 19.8   22.3 0.00 0.00 51.3   3.0 67.4   13.5
Geyserville-South (Nervo Station) 1/19/21 1715 60.2   10.3 18   7 16.9   3.3 2.8 N | 0 9.1   4.4 0.00 0.00 52.2   0.6 67.1   12.7
Lytton (River Oaks) 1/19/21 1715 61.9   10.4 18   9 18.0   7.5 1.5 SSW | 209 3.8   11.9 0.00 0.00 47.9   0.6 67.0   12.7
Jimtown-North (Piccolo-R15) 1/19/21 1715 62.7   10.1 14   6 12.8   3.6 4.4 NE | 52 11.2   0.4 0.00 0.00 51.7   3.3 69.6   11.2
Jimtown-NE (Red Fan) 1/19/21 1715 63.8   10.0 14   7 13.2   8.1 5.4 ENE | 62 10.1   13.4 0.00 0.00 52.4   2.3 69.1   11.8
HWY 128/Chalk Hill Rd (Landslide) 1/19/21 1715 63.3   7.7 14   3 13.8   0.4 7.5 NE | 38 14.0   2.4 0.00 0.00 50.7   1.2 66.8   13.0
Lower Dry Creek Valley 1/19/21 1715 63.5   10.2 13   6 12.5   5.6 5.4 N | 4 10.4   1.3 0.00 0.00 53.3   6.3 68.6   12.4
Max     63.8 18 18.0 10.6 - 19.8 0.00 0.00 53.3 69.6
Avg     61.5 15 13.7 5.2 - 11.6 0.00 - - -
Min     55.4 13 7.7 1.5 - 3.8 0.00 0.00 45.9 58.8

Central Sonoma County Latest

26 Stations

15 Minute Data | America/Los_Angeles
as of 1/19/21 5:25 PM PST
Station Date Time Temp (°F) RH (%) Dew Pt (°F) Wind Spd (mph) Wind Dir (°) Wind Gust (mph) Latest Rain (In) Daily Rain (In) Daily Min Temp (°F) Daily Max Temp (°F)
Healdsburg-South (Sodini) 1/19/21 1715 62.9   10.0 16   6 16.0   4.0 4.7 NNE | 15 8.8   9.1 0.00 0.00 53.4   5.1 68.2   10.3
Windsor-NW (Ranch 8) 1/19/21 1715 63.2   9.8 19   7 19.8   2.6 2.6 NE | 36 5.4   6.7 0.00 0.00 53.5   2.9 71.8   12.4
Windsor-East (Ranch 16) 1/19/21 1715 63.7   8.8 13   4 12.3   2.4 4.3 NE | 43 13.5   0.9 0.00 0.00 53.9   6.3 68.1   9.7
Mark West-North (Ranch 14) 1/19/21 1715 62.2   9.7 15   6 14.0   4.9 3.3 N | 10 9.1   4.3 0.00 0.00 53.2   6.2 66.6   11.9
Windsor-SE (Silk Rd) 1/19/21 1715 63.8   9.6 13   5 12.7   4.0 6.9 NNE | 27 13.7   1.7 0.00 0.00 54.3   9.1 66.5   12.5
Fulton-NW (Ranch 5) 1/19/21 1715 62.1   9.7 17   7 17.3   4.2 1.5 NW | 319 5.9   9.1 0.00 0.00 53.6   7.9 65.9   11.4
Windsor-South (Laughlin Rd) 1/19/21 1715 60.4   9.3 - - - - - 0.00 0.00 52.6   4.6 66.5   11.1
Fulton-SE (Barnes Rd) 1/19/21 1715 61.2   9.1 21   7 20.7   2.3 4.5 NNE | 32 10.9   8.9 0.00 0.00 52.2   7.6 65.7   12.8
Fulton-SW (Ranch 21) 1/19/21 1715 62.3   9.0 16   6 15.0   3.3 4.8 N | 8 8.6   10.5 0.00 0.00 52.0   6.4 66.0   11.9
Santa Rosa-NW (Goldfields) 1/19/21 1715 62.2   9.5 17   7 16.8   4.4 5.5 NNE | 12 9.6   9.4 0.00 0.00 51.0   5.7 65.5   13.7
NW Santa Rosa (Piner Road) 1/19/21 1715 62.3   9.9 18   7 18.4   3.3 5.8 NNE | 20 8.7   5.9 0.00 0.00 48.6   5.2 65.5   13.1
River Rd South (Denner Ranch) 1/19/21 1715 62.1   9.9 17   7 16.3   4.4 9.5 N | 10 14.9   5.9 0.00 0.00 52.7   7.5 66.7   12.2
West Santa Rosa (Hawk's Roost) 1/19/21 1715 62.4   10.0 16   7 16.0   5.5 6.9 NNE | 14 12.1   8.8 0.00 0.00 52.4   7.2 65.8   12.5
Guerneville Rd West (Balletto) 1/19/21 1715 63.0   10.1 18   7 18.3   4.1 5.9 NE | 36 12.2   7.0 0.00 0.00 52.5   10.1 65.7   12.1
Guerneville Rd East (Rich Ranch) 1/19/21 1715 61.7   9.6 17   7 16.6   3.4 - - - - - 49.0   7.8 65.6   12.3
Occidental Rd (Sebastopol) 1/19/21 1715 61.5   10.4 17   7 16.0   3.0 3.7 NNE | 31 8.8   8.3 0.00 0.00 52.2   12.1 65.9   12.2
Lower Westside Rd (Ranch 12) 1/19/21 1715 61.0   4.8 20   7 19.7   10.8 0.4 N | 353 1.4   0.2 0.00 0.00 50.3   5.4 68.8   13.8
Guerneville (Laughlin Rd) 1/19/21 1715 54.4   1.5 39   31 30.2   13.6 1.9 N | 354 4.4   1.3 0.00 0.00 52.2   12.8 67.6   13.6
Korbel (Winery) 1/19/21 1715 57.6   1.5 32   20 27.9   13.8 3.0 E | 86 7.3   0.3 0.00 0.00 52.4   11.9 68.1   12.7
Forestville (Shone Farms) 1/19/21 1715 63.2   9.7 14   6 12.5   4.3 6.3 NE | 36 12.3   0.8 0.00 0.00 52.2   5.0 67.6   11.6
Forestville-NE (Ranch 30) 1/19/21 1715 63.0   7.6 19   1 19.8   4.6 3.4 S | 172 9.9   4.9 0.00 0.00 52.1   9.2 68.6   12.1
Graton-West (Dutton Ranch) 1/19/21 1715 61.8   3.0 16   13 15.0   15.3 4.9 NNE | 20 9.6   5.1 0.00 0.00 53.3   11.9 66.4   12.2
Graton-South (Mill Station Rd) 1/19/21 1715 62.6   10.4 16   7 15.6   6.0 1.2 N | 355 5.9   4.5 0.00 0.00 53.8   13.1 66.3   11.8
Sexton Valley (Jacqueline's Blk) 1/19/21 1715 60.8   10.5 20   8 20.0   3.0 1.3 E | 97 6.5   5.0 0.00 0.00 53.5   11.5 65.1   12.9
Sebastopol Hills (Burnside Rd) 1/19/21 1715 59.9   11.4 20   10 19.2   6.2 0.9 ENE | 71 5.3   11.3 0.00 0.00 51.7   0.1 64.3   12.1
Seaview/Fort Ross (Hirsch) 1/19/21 1715 56.1   9.3 17   5 12.0   13.5 5.9 NNE | 31 13.8   10.6 0.00 0.00 47.9   12.1 59.2   14.8
Max     63.8 39 30.2 9.5 - 14.9 0.00 0.00 54.3 71.8
Avg     61.4 19 17.5 4.1 - 9.1 0.00 - - -
Min     54.4 13 12.0 0.4 - 1.4 0.00 0.00 47.9 59.2

Latest Observation

15 Stations

15 Minute Data | America/Los_Angeles
as of 1/19/21 5:25 PM PST
Station Date Time Temp (°F) RH (%) Dew Pt (°F) Wind Spd (mph) Wind Dir (°) Wind Gust (mph) Latest Rain (In) Daily Rain (In) Daily Min Temp (°F) Daily Max Temp (°F)
Lower Bennett Valley 1/19/21 1715 61.2   9.3 15   6 12.7   4.2 5.3 S | 184 14.5   1.7 0.00 0.00 52.7   8.2 64.9   14.5
Kenwood (Kunde) 1/19/21 1600 63.5   10.9 14   5 13.5   2.5 6.0 NE | 47 24.7   2.1 0.00 0.00 51.2   1.2 64.1   14.2
Sonoma Valley (Bedrock) 1/19/21 1715 61.1   9.9 14   6 12.1   3.6 7.3 N | 9 16.8   4.4 0.00 0.00 52.1   7.7 63.8   13.9
Sonoma-West (Arnold) 1/15/21 1800 54.2   0.7 86   2 50.0   1.2 1.7 WNW | 302 3.4   0.5 0.00 0.00 38.9   10.6 69.1   2.3
Schellville 1/19/21 1715 62.6   7.6 16   5 15.3   2.6 1.0 N | 11 5.8   2.7 0.00 0.00 53.8   8.4 68.0   14.0
Sonoma Valley HS 1/19/21 1715 63.4   10.1 16   7 16.4   4.1 6.0 NNE | 21 12.8   3.2 0.00 0.00 54.0   6.1 66.0   12.8
Sonoma-SE (Napoli) 1/19/21 1715 63.0   9.3 15   5 14.4   2.0 5.7 NNE | 13 11.8   7.7 0.00 0.00 54.1   8.5 67.4   11.8
Carneros (Ranch 71) 1/19/21 1715 61.8   10.1 15   6 13.5   4.7 7.5 N | 10 13.0   3.3 0.00 0.00 53.2   1.5 65.0   13.1
Carneros Upper (Ranch 81) 1/19/21 1715 61.6   9.4 14   6 12.3   5.3 12.1 NNE | 17 18.0   0.7 - - 52.8   0.1 65.1   12.8
Carneros Lower (Ranch 81) 1/19/21 1715 61.2   9.4 17   7 16.0   3.7 6.5 NNE | 12 11.1   5.4 0.00 0.00 53.4   5.8 66.5   12.0
Rohnert Park-West (Stony Point) 1/19/21 1715 59.8   10.2 23   8 21.8   2.2 1.7 NW | 308 3.9   8.9 0.00 0.00 51.8   11.9 65.2   12.9
Penngrove (Asellus) 1/19/21 1715 61.4   10.0 16   6 15.0   2.6 8.1 N | 357 12.5   0.7 0.00 0.00 51.7   11.2 65.8   15.8
Roger's Creek (Ranch 50) 1/19/21 1715 60.5   11.1 15   7 13.1   5.8 3.2 ENE | 62 9.1   3.8 0.00 0.00 51.0   2.1 64.3   14.4
Petaluma (Ranch 10) 1/19/21 1715 63.2   9.9 14   4 13.2   0.0 3.4 ENE | 66 12.4   6.7 0.00 0.00 53.3   8.9 67.7   16.3
Lakeville (Ranch 47) 1/19/21 1715 62.0   9.0 16   6 15.7   2.4 5.7 S | 170 11.0   1.5 0.00 0.00 53.7   11.7 66.0   13.7
Max     63.4 23 21.8 12.1 - 18.0 0.00 0.00 54.1 68.0
Avg     61.8 16 14.7 5.7 - 11.7 0.00 - - -
Min     59.8 14 12.1 1.0 - 3.9 0.00 0.00 51.0 63.8

Latest Observations

Map

Hourly Data